Time;durP1;ratioP1;P1;durP2;ratioP2;P2;SDS_P1;SDS_P2;PMS_P1;PMS_P2;Temp;Humidity;BMP_temperature;BMP_pressure;BME280_temperature;BME280_humidity;BME280_pressure;Samples;Min_cycle;Max_cycle;Signal;HPM_P1;HPM_P2
2022/01/26 00:06:27;;;;;;;42.47;14.45;;;4.30;99.90;;;;;;5007275;28;20037;-71
2022/01/26 00:08:53;;;;;;;40.83;13.43;;;4.30;99.90;;;;;;5006839;28;20057;-71
2022/01/26 00:11:19;;;;;;;60.85;15.30;;;4.30;99.90;;;;;;5006273;28;20045;-70
2022/01/26 00:13:45;;;;;;;60.40;15.30;;;4.20;99.90;;;;;;4988729;28;20034;-70
2022/01/26 00:16:22;;;;;;;49.55;15.45;;;4.30;99.90;;;;;;5006864;28;20030;-70
2022/01/26 00:18:49;;;;;;;41.85;13.15;;;4.30;99.90;;;;;;5006789;28;20034;-69
2022/01/26 00:21:26;;;;;;;57.45;14.55;;;4.30;99.90;;;;;;4989241;28;20026;-70
2022/01/26 00:38:34;;;;;;;42.83;14.27;;;4.30;99.90;;;;;;5006497;28;20069;-70
2022/01/26 00:40:07;;;;;;;39.65;9.93;;;4.30;99.90;;;;;;5006226;28;20105;-70
2022/01/26 00:42:38;;;;;;;38.58;14.18;;;4.30;99.90;;;;;;5006331;28;20026;-72
2022/01/26 00:45:05;;;;;;;51.55;13.05;;;4.20;99.90;;;;;;5006269;28;20030;-72
2022/01/26 00:47:32;;;;;;;46.53;14.50;;;4.20;99.90;;;;;;5005849;28;20784;-72
2022/01/26 00:50:03;;;;;;;27.92;9.13;;;4.20;99.90;;;;;;5006191;28;20542;-72
2022/01/26 00:52:39;;;;;;;44.72;12.70;;;4.20;99.90;;;;;;5005654;28;20050;-71
2022/01/26 00:55:07;;;;;;;50.85;12.70;;;4.20;99.90;;;;;;5005849;28;20023;-70
2022/01/26 00:57:33;;;;;;;37.17;12.05;;;4.20;99.90;;;;;;5005771;28;20037;-70
2022/01/26 00:59:59;;;;;;;36.42;12.25;;;4.20;99.90;;;;;;5005958;28;20042;-71
2022/01/26 01:02:26;;;;;;;36.50;12.52;;;4.20;99.90;;;;;;5005786;28;20037;-70
2022/01/26 01:04:52;;;;;;;44.72;10.93;;;4.20;99.90;;;;;;4988220;28;20467;-71
2022/01/26 01:07:21;;;;;;;42.42;11.82;;;4.20;99.90;;;;;;5005064;28;20042;-69
2022/01/26 01:09:47;;;;;;;28.33;10.68;;;4.20;99.90;;;;;;5005818;28;20026;-70
2022/01/26 01:12:13;;;;;;;39.72;13.68;;;4.20;99.90;;;;;;5005616;28;20053;-71
2022/01/26 01:14:40;;;;;;;50.75;12.82;;;4.30;99.90;;;;;;5005412;28;20438;-70
2022/01/26 01:17:09;;;;;;;44.95;12.18;;;4.30;99.90;;;;;;5005564;28;20033;-72
2022/01/26 01:19:41;;;;;;;36.78;12.43;;;4.30;99.90;;;;;;5005213;28;20038;-70
2022/01/26 01:33:08;;;;;;;45.92;12.77;;;4.20;99.90;;;;;;4982764;28;20077;-69
2022/01/26 01:35:37;;;;;;;50.85;13.00;;;4.20;99.90;;;;;;5005704;28;20027;-70
2022/01/26 01:38:13;;;;;;;39.58;11.20;;;4.20;99.90;;;;;;5005248;28;20029;-71
2022/01/26 01:40:41;;;;;;;36.53;12.55;;;4.20;99.90;;;;;;5005348;28;20038;-71
2022/01/26 01:43:08;;;;;;;37.13;11.38;;;4.20;99.90;;;;;;5005039;28;20054;-71
2022/01/26 01:45:43;;;;;;;30.17;9.90;;;4.30;99.90;;;;;;5005383;28;20027;-71
2022/01/26 01:48:12;;;;;;;35.38;10.63;;;4.20;99.90;;;;;;5005237;28;20030;-70
2022/01/26 01:50:41;;;;;;;29.60;11.82;;;4.20;99.90;;;;;;5005157;28;20031;-72
2022/01/26 01:53:08;;;;;;;37.25;10.80;;;4.20;99.90;;;;;;5004636;28;20065;-71
2022/01/26 01:55:39;;;;;;;30.90;11.13;;;4.20;99.90;;;;;;5005022;28;20410;-71
2022/01/26 01:58:05;;;;;;;34.83;10.98;;;4.20;99.90;;;;;;5005056;28;20430;-72
2022/01/26 02:00:30;;;;;;;29.65;10.02;;;4.20;99.90;;;;;;5005187;28;20053;-71
2022/01/26 02:02:57;;;;;;;35.47;13.02;;;4.20;99.90;;;;;;5005147;28;20039;-70
2022/01/26 02:05:23;;;;;;;38.97;11.50;;;4.20;99.90;;;;;;5005183;28;20026;-70
2022/01/26 02:07:49;;;;;;;41.15;9.70;;;4.20;99.90;;;;;;5004887;28;20035;-70
2022/01/26 02:10:14;;;;;;;43.17;10.82;;;4.20;99.90;;;;;;5004904;28;20031;-70
2022/01/26 02:12:45;;;;;;;33.47;10.30;;;4.20;99.90;;;;;;5004998;28;20050;-70
2022/01/26 02:15:18;;;;;;;54.03;13.25;;;4.20;99.90;;;;;;5005101;28;20026;-70
2022/01/26 02:55:59;;;;;;;23.65;8.05;;;4.10;99.90;;;;;;5008195;28;20026;-71
2022/01/26 03:06:51;;;;;;;43.70;10.13;;;4.10;99.90;;;;;;5008133;28;20058;-69
2022/01/26 03:09:22;;;;;;;34.03;9.95;;;4.10;99.90;;;;;;5007825;28;20027;-70
2022/01/26 03:11:49;;;;;;;24.30;7.80;;;4.10;99.90;;;;;;5007622;28;20026;-69
2022/01/26 03:14:30;;;;;;;28.80;7.80;;;4.10;99.90;;;;;;5007964;28;20026;-70
2022/01/26 03:17:03;;;;;;;27.95;8.48;;;4.10;99.90;;;;;;5008198;28;20030;-70
2022/01/26 03:19:37;;;;;;;17.90;6.55;;;4.10;99.90;;;;;;4990338;28;20045;-72
2022/01/26 03:32:51;;;;;;;34.63;9.73;;;4.00;99.90;;;;;;5007862;28;20058;-69
2022/01/26 03:35:27;;;;;;;21.05;6.97;;;4.00;99.90;;;;;;5007178;28;20033;-69
2022/01/26 03:37:55;;;;;;;18.80;6.32;;;4.10;99.90;;;;;;5007399;28;20030;-69
2022/01/26 03:40:29;;;;;;;24.58;7.65;;;4.00;99.90;;;;;;5007321;28;20803;-70
2022/01/26 03:42:56;;;;;;;23.67;8.32;;;4.10;99.90;;;;;;5007417;28;20022;-69
2022/01/26 03:45:21;;;;;;;24.90;6.32;;;4.00;99.90;;;;;;5007347;28;20053;-70
2022/01/26 03:47:47;;;;;;;29.92;6.78;;;4.00;99.90;;;;;;5007128;28;20030;-71
2022/01/26 03:50:12;;;;;;;27.42;7.55;;;4.00;99.90;;;;;;5007077;28;20058;-70
2022/01/26 03:52:38;;;;;;;23.70;7.35;;;3.90;99.90;;;;;;5006718;28;20051;-70
2022/01/26 03:55:04;;;;;;;27.85;7.45;;;4.00;99.90;;;;;;5006946;28;20031;-71
2022/01/26 03:57:30;;;;;;;28.75;8.82;;;4.00;99.90;;;;;;5007176;28;20054;-71
2022/01/26 03:59:56;;;;;;;19.40;5.90;;;4.00;99.90;;;;;;5007172;28;20030;-70
2022/01/26 04:02:21;;;;;;;26.52;7.05;;;4.00;99.90;;;;;;5007000;28;20030;-70
2022/01/26 04:04:53;;;;;;;21.33;6.75;;;3.90;99.90;;;;;;5006937;28;20487;-70
2022/01/26 04:07:18;;;;;;;16.70;5.03;;;3.90;99.90;;;;;;5006849;28;20022;-71
2022/01/26 04:09:44;;;;;;;18.60;6.85;;;3.90;99.90;;;;;;5006975;28;20057;-70
2022/01/26 04:12:10;;;;;;;19.38;6.70;;;3.90;99.90;;;;;;5006684;28;20026;-70
2022/01/26 04:14:36;;;;;;;15.15;5.28;;;3.90;99.90;;;;;;4989169;28;20034;-71
2022/01/26 04:17:02;;;;;;;22.20;7.30;;;3.90;99.90;;;;;;5007025;28;20026;-71
2022/01/26 04:19:31;;;;;;;14.05;5.95;;;3.90;99.90;;;;;;5006795;28;20053;-70
2022/01/26 04:24:29;;;;;;;21.95;6.90;;;3.90;99.90;;;;;;5006728;28;20085;-71
2022/01/26 04:27:03;;;;;;;14.75;5.72;;;3.90;99.90;;;;;;5006742;28;20026;-71
2022/01/26 04:29:31;;;;;;;16.63;5.68;;;3.90;99.90;;;;;;5006581;28;20022;-72
2022/01/26 04:31:59;;;;;;;20.17;6.57;;;3.90;99.90;;;;;;5006554;28;20053;-70
2022/01/26 04:34:28;;;;;;;16.17;4.97;;;3.90;99.90;;;;;;5006569;28;20050;-70
2022/01/26 04:37:00;;;;;;;21.17;7.13;;;3.90;99.90;;;;;;5006398;28;20034;-70
2022/01/26 04:39:35;;;;;;;18.00;6.53;;;3.90;99.90;;;;;;4988561;28;20438;-71
2022/01/26 04:42:10;;;;;;;27.27;6.13;;;3.90;99.90;;;;;;5005615;28;20324;-70
2022/01/26 04:44:45;;;;;;;19.65;5.88;;;3.80;99.90;;;;;;5005479;28;20022;-70
2022/01/26 04:47:14;;;;;;;16.23;5.93;;;3.80;99.90;;;;;;5002489;28;20026;-71
2022/01/26 04:49:39;;;;;;;19.00;6.55;;;3.80;99.90;;;;;;5004680;28;20027;-71
2022/01/26 04:52:05;;;;;;;15.32;5.75;;;3.80;99.90;;;;;;5005789;28;20038;-71
2022/01/26 04:54:31;;;;;;;33.53;6.65;;;3.80;99.90;;;;;;5006141;28;20058;-73
2022/01/26 04:56:57;;;;;;;21.67;7.07;;;3.80;99.90;;;;;;4988472;28;20034;-71
2022/01/26 04:59:22;;;;;;;19.90;6.75;;;3.80;99.90;;;;;;5005687;28;20048;-70
2022/01/26 05:01:48;;;;;;;19.95;5.65;;;3.80;99.90;;;;;;4988222;28;20158;-70
2022/01/26 05:04:13;;;;;;;20.65;5.32;;;3.80;99.90;;;;;;5005775;28;20033;-70
2022/01/26 05:06:39;;;;;;;26.00;6.25;;;3.70;99.90;;;;;;5005986;28;20038;-71
2022/01/26 05:09:05;;;;;;;14.75;6.28;;;3.70;99.90;;;;;;4988317;28;20022;-70
2022/01/26 05:11:38;;;;;;;21.52;7.05;;;3.70;99.90;;;;;;5005682;28;20023;-72
2022/01/26 05:14:05;;;;;;;16.25;5.65;;;3.70;99.90;;;;;;5005858;28;20113;-71
2022/01/26 05:16:31;;;;;;;23.52;6.90;;;3.70;99.90;;;;;;5005775;28;20031;-70
2022/01/26 05:18:58;;;;;;;23.58;6.35;;;3.70;99.90;;;;;;5005651;28;20561;-70
2022/01/26 05:21:25;;;;;;;17.20;6.13;;;3.70;99.90;;;;;;5005436;28;20034;-70
2022/01/26 05:23:51;;;;;;;16.23;5.60;;;3.60;99.90;;;;;;5005300;28;20117;-70
2022/01/26 05:26:18;;;;;;;18.05;6.03;;;3.60;99.90;;;;;;5005565;28;20030;-71
2022/01/26 05:28:44;;;;;;;22.67;6.30;;;3.70;99.90;;;;;;5005366;28;20038;-70
2022/01/26 05:31:10;;;;;;;23.02;5.35;;;3.60;99.90;;;;;;5005448;28;20348;-70
2022/01/26 05:33:36;;;;;;;19.92;6.80;;;3.60;99.90;;;;;;5005211;28;20041;-70
2022/01/26 05:36:02;;;;;;;20.90;6.18;;;3.60;99.90;;;;;;5005639;28;20026;-71
2022/01/26 05:38:29;;;;;;;15.70;5.07;;;3.60;99.90;;;;;;5005449;28;20034;-69
2022/01/26 05:41:01;;;;;;;16.67;6.13;;;3.60;99.90;;;;;;5005413;28;20061;-71
2022/01/26 05:43:33;;;;;;;26.23;6.60;;;3.50;99.90;;;;;;4987897;28;20069;-71
2022/01/26 05:46:09;;;;;;;18.67;5.97;;;3.50;99.90;;;;;;4987915;28;20487;-71
2022/01/26 05:48:37;;;;;;;22.90;5.90;;;3.50;99.90;;;;;;5004868;28;20030;-72
2022/01/26 05:51:06;;;;;;;22.25;7.65;;;3.50;99.90;;;;;;5005289;28;20022;-71
2022/01/26 05:53:33;;;;;;;28.23;7.50;;;3.50;99.90;;;;;;5004788;28;20113;-71
2022/01/26 05:56:00;;;;;;;22.50;7.10;;;3.50;99.90;;;;;;5005159;28;20101;-73
2022/01/26 05:58:26;;;;;;;23.33;5.88;;;3.50;99.90;;;;;;5005244;28;20046;-70
2022/01/26 06:00:52;;;;;;;20.00;7.13;;;3.50;99.90;;;;;;5004899;28;20404;-70
2022/01/26 06:03:18;;;;;;;21.70;6.93;;;3.50;99.90;;;;;;5005054;28;20514;-70
2022/01/26 06:05:44;;;;;;;26.10;7.38;;;3.40;99.90;;;;;;4987561;28;20022;-71
2022/01/26 06:08:09;;;;;;;19.95;7.00;;;3.40;99.90;;;;;;5004897;28;20101;-71
2022/01/26 06:10:35;;;;;;;29.23;6.55;;;3.50;99.90;;;;;;4986540;28;20073;-70
2022/01/26 06:13:01;;;;;;;28.73;7.53;;;3.40;99.90;;;;;;5005099;28;20057;-73
2022/01/26 06:15:27;;;;;;;18.27;5.43;;;3.40;99.90;;;;;;4987538;28;20038;-72
2022/01/26 06:17:53;;;;;;;17.67;6.93;;;3.40;99.90;;;;;;5004639;28;20030;-69
2022/01/26 06:20:19;;;;;;;17.55;5.18;;;3.40;99.90;;;;;;5004759;28;20093;-70
2022/01/26 06:22:44;;;;;;;18.75;6.57;;;3.40;99.90;;;;;;4987106;28;20117;-72
2022/01/26 06:25:10;;;;;;;28.00;8.57;;;3.30;99.90;;;;;;4987452;28;20054;-70
2022/01/26 06:27:37;;;;;;;37.55;6.18;;;3.30;99.90;;;;;;5005238;28;20027;-70
2022/01/26 06:30:05;;;;;;;21.38;6.55;;;3.30;99.90;;;;;;5004965;28;20033;-73
2022/01/26 06:32:31;;;;;;;32.10;6.05;;;3.20;99.90;;;;;;5004409;28;20115;-69
2022/01/26 06:34:58;;;;;;;15.90;6.13;;;3.30;99.90;;;;;;5005053;28;20030;-69
2022/01/26 06:37:24;;;;;;;19.10;6.53;;;3.20;99.90;;;;;;5004609;28;20458;-69
2022/01/26 06:39:49;;;;;;;28.10;7.13;;;3.20;99.90;;;;;;4987002;28;20049;-70
2022/01/26 06:42:20;;;;;;;22.08;6.68;;;3.20;99.90;;;;;;5004699;28;20466;-69
2022/01/26 06:45:06;;;;;;;20.77;5.72;;;3.20;99.90;;;;;;5004668;28;20076;-73
2022/01/26 06:47:49;;;;;;;25.13;7.13;;;3.30;99.90;;;;;;4985402;28;20034;-73
2022/01/26 06:50:23;;;;;;;25.63;6.63;;;3.20;99.90;;;;;;4995608;28;20034;-74
2022/01/26 06:52:49;;;;;;;19.45;6.38;;;3.20;99.90;;;;;;4997888;28;20069;-71
2022/01/26 06:55:19;;;;;;;26.77;6.47;;;3.20;99.90;;;;;;5003751;28;20034;-71
2022/01/26 06:57:45;;;;;;;27.02;7.75;;;3.20;99.90;;;;;;4992735;28;20030;-72
2022/01/26 07:00:12;;;;;;;24.52;6.47;;;3.20;99.90;;;;;;4995281;28;20115;-73
2022/01/26 07:02:39;;;;;;;31.70;6.75;;;3.20;99.90;;;;;;4995872;28;20032;-71
2022/01/26 07:05:06;;;;;;;33.00;7.20;;;3.10;99.90;;;;;;5006030;28;20053;-75
2022/01/26 07:07:33;;;;;;;19.95;7.25;;;3.10;99.90;;;;;;4989989;28;20026;-72
2022/01/26 07:09:59;;;;;;;19.85;6.25;;;3.10;99.90;;;;;;5008134;28;20027;-73
2022/01/26 07:12:25;;;;;;;18.02;6.03;;;3.10;99.90;;;;;;5008027;28;20082;-71
2022/01/26 07:21:05;;;;;;;28.13;8.32;;;3.10;99.90;;;;;;5014369;28;20049;-71
2022/01/26 07:23:06;;;;;;;19.10;6.05;;;3.00;99.90;;;;;;5007346;28;20030;-72
2022/01/26 07:25:32;;;;;;;16.85;5.85;;;3.00;99.90;;;;;;5007713;28;20022;-74
2022/01/26 07:28:01;;;;;;;24.35;7.60;;;3.00;99.90;;;;;;5006680;28;20031;-72
2022/01/26 07:30:27;;;;;;;30.58;7.78;;;3.00;99.90;;;;;;5007871;28;20117;-72
2022/01/26 07:32:53;;;;;;;31.23;8.80;;;3.00;99.90;;;;;;4990003;28;20030;-69
2022/01/26 07:35:18;;;;;;;31.52;6.95;;;3.00;99.90;;;;;;5007437;28;20664;-71
2022/01/26 07:37:45;;;;;;;25.40;5.68;;;3.00;99.90;;;;;;4989556;28;20030;-71
2022/01/26 07:40:11;;;;;;;39.67;7.45;;;3.00;99.90;;;;;;5007130;28;20446;-71
2022/01/26 07:42:37;;;;;;;26.35;7.18;;;3.00;99.90;;;;;;5007306;28;20077;-73
2022/01/26 07:45:07;;;;;;;38.30;8.23;;;2.90;99.90;;;;;;5007561;28;20030;-72
2022/01/26 07:47:33;;;;;;;20.13;6.50;;;2.90;99.90;;;;;;5007168;28;20057;-72
2022/01/26 07:50:08;;;;;;;18.83;6.22;;;2.90;99.90;;;;;;4989668;28;20022;-72
2022/01/26 07:52:40;;;;;;;19.10;6.53;;;2.90;99.90;;;;;;5005335;28;20153;-71
2022/01/26 07:55:08;;;;;;;29.10;7.30;;;2.90;99.90;;;;;;4988995;28;20034;-73
2022/01/26 07:57:34;;;;;;;36.08;7.63;;;2.90;99.90;;;;;;5005090;28;20033;-72
2022/01/26 08:00:00;;;;;;;23.42;7.50;;;2.90;99.90;;;;;;4988954;28;20034;-73
2022/01/26 08:02:26;;;;;;;29.13;7.47;;;2.90;99.90;;;;;;4988003;28;20033;-72
2022/01/26 08:04:53;;;;;;;20.60;5.45;;;2.90;99.90;;;;;;5006751;28;20034;-71
2022/01/26 08:07:18;;;;;;;48.42;7.55;;;2.90;99.90;;;;;;5005802;28;20030;-71
2022/01/26 08:09:44;;;;;;;18.85;6.50;;;2.90;99.90;;;;;;5006767;28;20037;-70
2022/01/26 08:12:15;;;;;;;30.38;6.43;;;2.90;99.90;;;;;;5001944;28;20093;-71
2022/01/26 08:14:41;;;;;;;24.13;6.63;;;3.00;99.90;;;;;;5002081;28;20026;-70
2022/01/26 08:17:08;;;;;;;26.73;8.18;;;3.00;99.90;;;;;;5004954;28;20496;-71
2022/01/26 08:19:36;;;;;;;28.27;6.85;;;3.00;99.90;;;;;;5001358;28;20069;-74
2022/01/26 08:22:05;;;;;;;25.73;7.15;;;3.00;99.90;;;;;;5006730;28;20109;-71
2022/01/26 08:24:31;;;;;;;29.30;6.95;;;3.00;99.90;;;;;;5003693;28;20030;-71
2022/01/26 08:27:05;;;;;;;23.73;7.25;;;2.90;99.90;;;;;;5005249;28;20536;-71
2022/01/26 08:29:39;;;;;;;45.42;8.82;;;2.90;99.90;;;;;;4989458;28;20026;-71
2022/01/26 08:32:04;;;;;;;32.40;8.63;;;2.90;99.90;;;;;;5006923;28;20037;-72
2022/01/26 08:34:31;;;;;;;25.00;5.82;;;3.00;99.90;;;;;;5026479;28;20026;-70
2022/01/26 08:36:58;;;;;;;26.98;8.85;;;3.00;99.90;;;;;;5022675;28;20046;-72
2022/01/26 08:39:24;;;;;;;26.80;7.82;;;2.90;99.90;;;;;;5004899;28;20050;-70
2022/01/26 08:41:50;;;;;;;38.42;8.40;;;3.00;99.90;;;;;;5005631;28;20027;-70
2022/01/26 08:44:15;;;;;;;21.08;7.28;;;3.00;99.90;;;;;;4987657;28;20037;-70
2022/01/26 08:46:41;;;;;;;32.45;9.45;;;3.00;99.90;;;;;;5006854;28;20050;-71
2022/01/26 08:49:08;;;;;;;20.75;6.00;;;3.00;99.90;;;;;;5004308;28;20038;-71
2022/01/26 08:51:42;;;;;;;28.15;7.82;;;3.00;99.90;;;;;;5000977;28;20034;-71
2022/01/26 08:54:10;;;;;;;30.73;7.53;;;3.00;99.90;;;;;;5003895;28;20137;-70
2022/01/26 08:56:37;;;;;;;25.05;8.43;;;3.00;99.90;;;;;;5003693;28;20050;-71
2022/01/26 08:59:03;;;;;;;24.70;7.78;;;3.00;99.90;;;;;;5001451;28;20049;-70
2022/01/26 09:01:30;;;;;;;26.85;8.13;;;3.10;99.90;;;;;;5002192;28;20026;-71
2022/01/26 09:03:56;;;;;;;30.02;8.23;;;3.00;99.90;;;;;;5000553;28;20038;-72
2022/01/26 09:06:21;;;;;;;20.42;7.80;;;3.10;99.90;;;;;;5002996;28;20133;-71
2022/01/26 09:08:56;;;;;;;25.33;7.72;;;3.00;99.90;;;;;;5002657;28;20041;-69
2022/01/26 09:11:48;;;;;;;33.72;8.95;;;3.00;99.90;;;;;;5000756;28;20085;-71
2022/01/26 09:14:20;;;;;;;27.83;9.30;;;3.10;99.90;;;;;;5004083;28;20155;-71
2022/01/26 09:16:46;;;;;;;22.63;6.88;;;3.00;99.90;;;;;;5004723;28;20030;-72
2022/01/26 09:19:29;;;;;;;32.85;8.55;;;3.00;99.90;;;;;;5004036;28;20042;-74
2022/01/26 09:22:08;;;;;;;24.17;7.85;;;3.10;99.90;;;;;;5004964;28;20073;-71
2022/01/26 09:24:37;;;;;;;39.13;8.77;;;3.10;99.90;;;;;;4986051;28;20027;-72
2022/01/26 09:27:06;;;;;;;31.38;7.80;;;3.10;99.90;;;;;;4982257;28;20085;-72
2022/01/26 09:29:34;;;;;;;52.85;7.85;;;3.10;99.90;;;;;;5005267;28;20032;-73
2022/01/26 09:32:04;;;;;;;39.42;10.10;;;3.10;99.90;;;;;;5005334;28;20899;-71
2022/01/26 09:34:35;;;;;;;36.17;9.20;;;3.10;99.90;;;;;;4990055;28;20037;-70
2022/01/26 09:37:05;;;;;;;34.45;8.63;;;3.10;99.90;;;;;;5005215;28;20026;-71
2022/01/26 09:39:32;;;;;;;30.38;9.10;;;3.10;99.90;;;;;;5005281;28;20038;-71
2022/01/26 09:41:58;;;;;;;41.45;10.65;;;3.10;99.90;;;;;;5002633;28;20034;-71
2022/01/26 09:44:24;;;;;;;37.75;9.75;;;3.10;99.90;;;;;;5004865;28;20053;-69
2022/01/26 09:46:50;;;;;;;26.67;9.55;;;3.00;99.90;;;;;;5005066;28;20546;-69
2022/01/26 09:49:16;;;;;;;39.75;9.65;;;3.00;99.90;;;;;;4986055;28;20058;-68
2022/01/26 09:51:44;;;;;;;26.30;10.27;;;3.00;99.90;;;;;;5002688;28;20049;-69
2022/01/26 09:54:16;;;;;;;42.75;12.10;;;3.10;99.90;;;;;;5003757;28;20077;-69
2022/01/26 09:56:44;;;;;;;17.30;6.60;;;3.10;99.90;;;;;;4986862;28;20109;-71
2022/01/26 09:59:10;;;;;;;34.78;10.43;;;3.00;99.90;;;;;;5001576;28;20030;-69
2022/01/26 10:01:40;;;;;;;36.35;10.13;;;3.10;99.90;;;;;;4989799;28;20483;-71
2022/01/26 10:04:06;;;;;;;40.25;10.90;;;3.00;99.90;;;;;;4993131;28;20031;-71
2022/01/26 10:06:40;;;;;;;44.83;9.95;;;3.00;99.90;;;;;;4997497;28;20406;-70
2022/01/26 10:17:47;;;;;;;38.20;11.27;;;3.00;99.90;;;;;;5003146;28;20037;-70
2022/01/26 10:20:17;;;;;;;42.58;10.07;;;3.00;99.90;;;;;;5003442;28;20046;-69
2022/01/26 10:22:43;;;;;;;47.05;12.45;;;3.00;99.90;;;;;;5002259;28;20490;-70
2022/01/26 10:25:18;;;;;;;40.63;11.30;;;3.00;99.90;;;;;;5002553;28;20041;-69
2022/01/26 10:27:48;;;;;;;36.60;10.98;;;3.10;99.90;;;;;;5003258;28;20037;-72
2022/01/26 10:30:15;;;;;;;36.78;10.75;;;3.10;99.90;;;;;;5001418;28;20493;-70
2022/01/26 10:32:43;;;;;;;39.63;11.82;;;3.00;99.90;;;;;;5002521;28;20066;-71
2022/01/26 10:35:09;;;;;;;42.30;10.77;;;3.00;99.90;;;;;;5004188;28;20054;-71
2022/01/26 10:37:52;;;;;;;60.45;14.45;;;3.00;99.90;;;;;;5003641;28;20105;-72
2022/01/26 10:40:23;;;;;;;38.38;11.32;;;3.00;99.90;;;;;;4986872;28;20074;-70
2022/01/26 10:43:07;;;;;;;42.85;12.55;;;3.00;99.90;;;;;;5005696;28;20032;-71
2022/01/26 10:45:49;;;;;;;40.78;12.73;;;3.00;99.90;;;;;;5006972;28;20589;-73
2022/01/26 10:48:28;;;;;;;47.03;12.77;;;3.00;99.90;;;;;;5004428;28;20030;-69
2022/01/26 10:51:32;;;;;;;52.25;13.45;;;3.00;99.90;;;;;;5005643;28;20026;-69
2022/01/26 10:53:58;;;;;;;48.72;12.50;;;3.00;99.90;;;;;;4992686;28;20061;-71
2022/01/26 10:56:25;;;;;;;50.40;12.95;;;3.10;99.90;;;;;;5003616;28;20374;-71
2022/01/26 10:58:51;;;;;;;51.58;13.55;;;3.10;99.90;;;;;;5005856;28;20032;-71
2022/01/26 11:01:18;;;;;;;45.60;12.07;;;3.10;99.90;;;;;;5005845;28;20086;-71
2022/01/26 11:03:44;;;;;;;39.75;10.93;;;3.10;99.90;;;;;;5006190;28;20097;-72
2022/01/26 11:06:16;;;;;;;42.22;14.15;;;3.10;99.90;;;;;;5006478;28;20030;-71
2022/01/26 11:08:44;;;;;;;51.15;14.65;;;3.10;99.90;;;;;;5006123;28;20019;-72
2022/01/26 11:11:26;;;;;;;38.70;12.23;;;3.20;99.90;;;;;;5005809;28;20081;-71
2022/01/26 11:13:53;;;;;;;40.35;12.52;;;3.20;99.90;;;;;;4988025;28;20031;-72
2022/01/26 11:16:18;;;;;;;43.15;14.68;;;3.20;99.90;;;;;;5006242;28;20081;-71
2022/01/26 11:18:51;;;;;;;45.95;12.52;;;3.10;99.90;;;;;;5005988;28;20038;-71
2022/01/26 11:21:38;;;;;;;41.95;12.40;;;3.10;99.90;;;;;;5004446;28;20052;-69
2022/01/26 11:24:21;;;;;;;39.97;10.65;;;3.10;99.90;;;;;;4988555;28;20061;-72
2022/01/26 11:27:01;;;;;;;52.92;13.32;;;3.20;99.90;;;;;;4986721;28;20034;-69
2022/01/26 11:29:34;;;;;;;55.80;12.60;;;3.20;99.90;;;;;;4986030;28;20023;-71
2022/01/26 11:32:11;;;;;;;39.95;11.10;;;3.20;99.90;;;;;;4990171;28;20025;-70
2022/01/26 11:34:41;;;;;;;50.92;14.63;;;3.20;99.90;;;;;;5006255;28;20073;-72
2022/01/26 11:37:12;;;;;;;52.50;12.60;;;3.20;99.90;;;;;;4993165;28;20026;-72
2022/01/26 11:45:09;;;;;;;49.50;13.80;;;3.20;99.90;;;;;;5004817;28;20514;-69
2022/01/26 11:47:39;;;;;;;43.65;14.48;;;3.20;99.90;;;;;;5005417;28;20027;-71
2022/01/26 11:50:21;;;;;;;34.92;13.32;;;3.20;99.90;;;;;;5005505;28;20039;-72
2022/01/26 11:52:59;;;;;;;45.00;11.77;;;3.20;99.90;;;;;;5004618;28;20114;-70
2022/01/26 11:55:36;;;;;;;40.15;12.30;;;3.20;99.90;;;;;;4988142;28;20117;-71
2022/01/26 11:58:19;;;;;;;42.05;10.05;;;3.20;99.90;;;;;;4983377;28;20030;-70
2022/01/26 12:00:58;;;;;;;50.05;13.00;;;3.20;99.90;;;;;;4986205;28;20043;-72
2022/01/26 12:03:31;;;;;;;40.20;12.40;;;3.30;99.90;;;;;;5001966;28;20144;-71
2022/01/26 12:05:58;;;;;;;40.58;12.60;;;3.20;99.90;;;;;;5005093;28;20029;-70
2022/01/26 12:08:27;;;;;;;42.90;12.38;;;3.20;99.90;;;;;;4986102;28;20064;-73
2022/01/26 12:10:53;;;;;;;40.85;12.18;;;3.30;99.90;;;;;;5005416;28;20026;-72
2022/01/26 12:13:25;;;;;;;40.30;12.30;;;3.30;99.90;;;;;;5003588;28;20037;-71
2022/01/26 12:15:55;;;;;;;40.58;13.85;;;3.30;99.90;;;;;;5005291;28;20172;-72
2022/01/26 12:35:45;;;;;;;53.67;14.18;;;3.30;99.90;;;;;;5005107;28;20033;-71
2022/01/26 12:38:10;;;;;;;54.72;13.93;;;3.30;99.90;;;;;;5005030;28;20034;-72
2022/01/26 12:43:53;;;;;;;42.22;14.02;;;3.30;99.90;;;;;;5005232;28;20041;-70
2022/01/26 12:46:23;;;;;;;44.35;12.95;;;3.30;99.90;;;;;;4999199;28;20038;-71
2022/01/26 12:49:07;;;;;;;56.22;15.07;;;3.20;99.90;;;;;;5004312;28;20038;-71
2022/01/26 12:51:46;;;;;;;61.88;14.23;;;3.30;99.90;;;;;;4985517;28;20053;-70
2022/01/26 12:54:12;;;;;;;52.72;14.25;;;3.30;99.90;;;;;;4984916;28;20125;-71
2022/01/26 12:56:38;;;;;;;46.50;13.25;;;3.30;99.90;;;;;;4985021;28;20038;-72
2022/01/26 12:59:17;;;;;;;53.08;15.90;;;3.30;99.90;;;;;;4967698;28;20034;-72
2022/01/26 13:01:45;;;;;;;41.78;13.10;;;3.40;99.90;;;;;;4984035;28;20543;-71
2022/01/26 13:04:13;;;;;;;39.92;11.57;;;3.30;99.90;;;;;;4982922;28;20945;-72
2022/01/26 13:06:51;;;;;;;49.42;13.30;;;3.40;99.90;;;;;;4983856;28;20031;-73
2022/01/26 13:09:26;;;;;;;42.45;12.82;;;3.40;99.90;;;;;;4982721;28;20058;-72
2022/01/26 13:11:54;;;;;;;41.17;10.35;;;3.40;99.90;;;;;;4983254;28;20038;-72
2022/01/26 13:14:38;;;;;;;55.38;13.98;;;3.40;99.90;;;;;;4986046;28;20031;-71
2022/01/26 13:17:20;;;;;;;59.67;15.13;;;3.40;99.90;;;;;;4968017;28;20027;-69
2022/01/26 13:25:33;;;;;;;57.88;14.95;;;3.40;99.90;;;;;;5004344;28;20041;-72
2022/01/26 13:41:40;;;;;;;;;;;3.50;99.90;;;;;;5004072;28;20046;-73
2022/01/26 13:47:13;;;;;;;51.83;13.80;;;3.50;99.90;;;;;;5005671;28;20074;-69
2022/01/26 14:00:29;;;;;;;55.95;15.48;;;3.70;99.90;;;;;;5024730;28;19963;-72
2022/01/26 14:02:59;;;;;;;54.20;15.93;;;3.70;99.90;;;;;;5005178;28;20027;-70
2022/01/26 14:05:25;;;;;;;44.67;14.45;;;3.70;99.90;;;;;;4998109;28;21082;-73
2022/01/26 14:07:54;;;;;;;48.75;15.15;;;3.70;99.90;;;;;;5010124;28;20069;-70
2022/01/26 14:10:20;;;;;;;48.90;14.52;;;3.70;99.90;;;;;;5003205;28;20030;-70
2022/01/26 14:12:48;;;;;;;65.70;16.58;;;3.70;99.90;;;;;;5005029;28;20032;-69
2022/01/26 14:15:19;;;;;;;51.08;14.45;;;3.70;99.90;;;;;;5002700;28;20022;-69
2022/01/26 14:20:43;;;;;;;65.53;17.02;;;3.70;99.90;;;;;;5000196;28;20045;-69
2022/01/26 14:23:31;;;;;;;56.55;15.45;;;3.80;99.90;;;;;;5008621;28;20092;-71
2022/01/26 14:25:58;;;;;;;49.45;15.55;;;3.80;99.90;;;;;;5008038;28;20031;-70
2022/01/26 14:28:31;;;;;;;61.38;15.93;;;3.80;99.90;;;;;;5008659;28;20034;-71
2022/01/26 14:54:47;;;;;;;48.83;12.85;;;4.00;99.90;;;;;;5007687;28;20027;-71
2022/01/26 15:41:49;;;;;;;38.42;14.40;;;4.10;99.90;;;;;;5007041;28;20046;-71
2022/01/26 15:48:41;;;;;;;59.70;14.90;;;4.10;99.90;;;;;;5006140;28;20489;-70
2022/01/26 15:49:53;;;;;;;65.00;12.88;;;4.10;99.90;;;;;;5006621;28;20041;-72
2022/01/26 15:52:47;;;;;;;46.83;12.07;;;4.10;99.90;;;;;;5006327;28;20046;-72
2022/01/26 15:58:12;;;;;;;33.40;11.63;;;4.10;99.90;;;;;;5006707;28;20061;-71
2022/01/26 16:35:11;;;;;;;50.20;13.27;;;4.10;99.90;;;;;;5002446;28;20069;-72
2022/01/26 16:37:41;;;;;;;46.10;13.30;;;4.10;99.90;;;;;;5005879;28;20061;-72
2022/01/26 17:02:30;;;;;;;;;;;4.20;99.90;;;;;;4903498;28;20137;-73
2022/01/26 17:11:13;;;;;;;44.22;12.93;;;4.20;99.90;;;;;;4985489;28;20089;-71
2022/01/26 17:43:13;;;;;;;43.63;12.23;;;4.20;99.90;;;;;;5005550;28;20513;-71
2022/01/26 17:43:17;;;;;;;35.90;12.50;;;4.30;99.90;;;;;;5005587;28;20513;-71
2022/01/26 17:55:12;;;;;;;33.30;10.30;;;4.20;99.90;;;;;;5004990;28;20045;-71
2022/01/26 17:55:15;;;;;;;35.92;11.23;;;4.20;99.90;;;;;;5004565;28;20125;-71
2022/01/26 18:13:20;;;;;;;35.50;11.85;;;4.40;99.90;;;;;;4998465;28;20033;-71
2022/01/26 18:15:53;;;;;;;46.38;15.05;;;4.40;99.90;;;;;;4986909;28;20027;-72
2022/01/26 18:26:39;;;;;;;62.40;14.48;;;4.40;99.90;;;;;;4999338;28;20360;-71
2022/01/26 18:50:41;;;;;;;52.97;13.90;;;4.30;99.90;;;;;;4999233;28;20065;-72
2022/01/26 18:53:07;;;;;;;43.63;14.02;;;4.30;99.90;;;;;;4993749;28;20077;-71
2022/01/26 18:55:34;;;;;;;39.15;12.68;;;4.30;99.90;;;;;;4996536;28;20468;-71
2022/01/26 18:58:07;;;;;;;52.97;16.27;;;4.30;99.90;;;;;;5003804;28;20030;-72
2022/01/26 19:00:33;;;;;;;46.30;13.07;;;4.30;99.90;;;;;;5003715;28;20102;-72
2022/01/26 19:03:06;;;;;;;65.97;14.10;;;4.30;99.90;;;;;;4999358;28;20472;-73
2022/01/26 19:05:32;;;;;;;42.47;12.95;;;4.30;99.90;;;;;;4991094;28;20394;-74
2022/01/26 19:07:57;;;;;;;54.13;13.50;;;4.30;99.90;;;;;;4996583;28;20026;-70
2022/01/26 19:10:24;;;;;;;46.50;13.80;;;4.30;99.90;;;;;;5000961;28;20034;-73
2022/01/26 19:12:50;;;;;;;40.22;13.40;;;4.30;99.90;;;;;;4998782;28;20035;-71
2022/01/26 19:15:20;;;;;;;46.65;15.30;;;4.30;99.90;;;;;;4998429;28;20023;-71
2022/01/26 19:18:15;;;;;;;33.00;13.07;;;4.30;99.90;;;;;;4993413;28;20112;-71